createdAt,value
2023-02-26T00:01:31.035Z,2.70
2023-02-26T00:04:01.572Z,2.60
2023-02-26T00:06:29.514Z,2.60
2023-02-26T00:08:56.835Z,2.60
2023-02-26T00:11:25.094Z,2.60
2023-02-26T00:13:52.358Z,2.60
2023-02-26T00:16:31.186Z,2.50
2023-02-26T00:19:00.845Z,2.50
2023-02-26T00:21:28.836Z,2.50
2023-02-26T00:23:56.499Z,2.50
2023-02-26T00:26:25.468Z,2.50
2023-02-26T00:28:52.663Z,2.50
2023-02-26T00:31:24.478Z,2.50
2023-02-26T00:33:55.424Z,2.50
2023-02-26T00:36:38.953Z,2.50
2023-02-26T00:39:12.424Z,2.50
2023-02-26T00:41:39.513Z,2.50
2023-02-26T00:44:06.472Z,2.50
2023-02-26T00:46:48.775Z,2.40
2023-02-26T00:49:39.249Z,2.50
2023-02-26T00:52:14.122Z,2.40
2023-02-26T00:54:40.817Z,2.50
2023-02-26T00:57:07.563Z,2.50
2023-02-26T00:59:34.263Z,2.50
2023-02-26T01:02:01.748Z,2.50
2023-02-26T01:04:28.655Z,2.50
2023-02-26T01:06:57.939Z,2.50
2023-02-26T01:09:32.077Z,2.60
2023-02-26T01:12:03.523Z,2.60
2023-02-26T01:14:32.235Z,2.70
2023-02-26T01:17:24.010Z,2.60
2023-02-26T01:20:01.227Z,2.60
2023-02-26T01:22:48.300Z,2.60
2023-02-26T01:25:21.878Z,2.60
2023-02-26T01:27:49.715Z,2.70
2023-02-26T01:30:17.215Z,2.70
2023-02-26T01:33:02.831Z,2.70
2023-02-26T01:35:35.796Z,2.70
2023-02-26T01:38:34.894Z,2.70
2023-02-26T01:41:19.875Z,2.70
2023-02-26T01:43:51.718Z,2.70
2023-02-26T01:46:48.010Z,2.70
2023-02-26T01:49:18.551Z,2.70
2023-02-26T01:52:05.454Z,2.70
2023-02-26T01:54:38.217Z,2.70
2023-02-26T01:57:12.287Z,2.70
2023-02-26T01:59:42.724Z,2.70
2023-02-26T02:02:12.869Z,2.70
2023-02-26T02:04:40.802Z,2.60
2023-02-26T02:07:07.971Z,2.70
2023-02-26T02:09:34.998Z,2.60
2023-02-26T02:12:44.770Z,2.60
2023-02-26T02:15:20.060Z,2.60
2023-02-26T02:18:11.391Z,2.80
2023-02-26T02:21:06.159Z,2.80
2023-02-26T02:24:04.452Z,2.80
2023-02-26T02:26:37.267Z,2.70
2023-02-26T02:29:22.865Z,2.70
2023-02-26T02:32:14.661Z,2.70
2023-02-26T02:35:08.380Z,2.80
2023-02-26T02:37:52.191Z,2.80
2023-02-26T02:40:42.268Z,2.90
2023-02-26T02:43:22.163Z,2.90
2023-02-26T02:46:05.874Z,2.90
2023-02-26T02:48:40.351Z,2.90
2023-02-26T02:51:17.741Z,2.80
2023-02-26T02:53:51.036Z,2.80
2023-02-26T02:56:42.735Z,2.70
2023-02-26T02:59:15.327Z,2.70
2023-02-26T03:01:45.134Z,2.60
2023-02-26T03:04:15.293Z,2.60
2023-02-26T03:06:42.935Z,2.50
2023-02-26T03:09:10.793Z,2.40
2023-02-26T03:11:41.221Z,2.40
2023-02-26T03:14:10.194Z,2.30
2023-02-26T03:17:14.742Z,2.20
2023-02-26T03:19:59.986Z,2.30
2023-02-26T03:22:52.703Z,2.20
2023-02-26T03:25:38.250Z,2.10
2023-02-26T03:28:32.858Z,2.10
2023-02-26T03:31:03.235Z,2.10
2023-02-26T03:34:19.724Z,2.10
2023-02-26T03:37:19.005Z,2.10
2023-02-26T03:39:55.702Z,2.00
2023-02-26T03:42:28.152Z,2.00
2023-02-26T03:45:10.204Z,2.00
2023-02-26T03:47:39.856Z,2.00
2023-02-26T03:50:18.709Z,1.90
2023-02-26T03:53:12.644Z,1.90
2023-02-26T03:55:52.674Z,1.90
2023-02-26T03:58:36.560Z,1.90
2023-02-26T04:01:29.565Z,1.90
2023-02-26T04:04:04.176Z,1.80
2023-02-26T04:06:32.604Z,1.80
2023-02-26T04:09:01.353Z,1.80
2023-02-26T04:11:30.743Z,1.80
2023-02-26T04:13:57.540Z,1.80
2023-02-26T04:16:24.833Z,1.70
2023-02-26T04:18:52.515Z,1.70
2023-02-26T04:21:21.886Z,1.70
2023-02-26T04:23:49.013Z,1.80
2023-02-26T04:26:16.061Z,1.80
2023-02-26T04:28:46.480Z,1.80
2023-02-26T04:31:13.370Z,1.70
2023-02-26T04:33:40.932Z,1.70
2023-02-26T04:36:08.264Z,1.70
2023-02-26T04:38:35.895Z,1.70
2023-02-26T04:41:03.277Z,1.60
2023-02-26T04:43:30.085Z,1.60
2023-02-26T04:46:12.262Z,1.60
2023-02-26T04:48:40.095Z,1.60
2023-02-26T04:51:06.830Z,1.60
2023-02-26T04:53:33.896Z,1.60
2023-02-26T04:56:00.675Z,1.60
2023-02-26T04:58:27.616Z,1.70
2023-02-26T05:00:57.858Z,1.60
2023-02-26T05:03:25.851Z,1.60
2023-02-26T05:05:52.795Z,1.50
2023-02-26T05:08:19.692Z,1.50
2023-02-26T05:10:47.081Z,1.50
2023-02-26T05:13:13.912Z,1.40
2023-02-26T05:15:41.195Z,1.40
2023-02-26T05:18:07.963Z,1.40
2023-02-26T05:20:34.899Z,1.40
2023-02-26T05:23:02.367Z,1.30
2023-02-26T05:25:29.453Z,1.30
2023-02-26T05:27:57.180Z,1.20
2023-02-26T05:30:24.183Z,1.20
2023-02-26T05:32:51.161Z,1.20
2023-02-26T05:35:18.064Z,1.20
2023-02-26T05:37:44.860Z,1.10
2023-02-26T05:40:12.180Z,1.20
2023-02-26T05:42:39.738Z,1.20
2023-02-26T05:45:07.595Z,1.20
2023-02-26T05:47:35.125Z,1.20
2023-02-26T05:50:02.309Z,1.10
2023-02-26T05:52:29.124Z,1.10
2023-02-26T05:54:56.065Z,1.10
2023-02-26T05:57:24.108Z,1.10
2023-02-26T06:04:47.045Z,1.10
2023-02-26T06:07:14.353Z,1.00
2023-02-26T06:09:41.029Z,0.90
2023-02-26T06:12:08.219Z,0.90
2023-02-26T06:14:35.775Z,0.90
2023-02-26T06:17:04.497Z,0.90
2023-02-26T06:19:32.664Z,0.90
2023-02-26T06:21:59.473Z,0.80
2023-02-26T06:24:26.467Z,0.80
2023-02-26T06:26:53.295Z,0.80
2023-02-26T06:29:20.727Z,0.80
2023-02-26T06:31:50.233Z,0.80
2023-02-26T06:34:17.581Z,0.80
2023-02-26T06:36:44.778Z,0.80
2023-02-26T06:39:12.652Z,0.80
2023-02-26T06:41:39.390Z,0.70
2023-02-26T06:44:06.416Z,0.80
2023-02-26T06:46:33.399Z,0.80
2023-02-26T06:49:00.419Z,0.80
2023-02-26T06:51:27.253Z,0.70
2023-02-26T06:53:53.928Z,0.80
2023-02-26T06:56:22.272Z,0.80
2023-02-26T06:58:50.996Z,0.80
2023-02-26T07:01:17.975Z,0.80
2023-02-26T07:03:44.784Z,0.80
2023-02-26T07:06:26.386Z,0.80
2023-02-26T07:09:01.934Z,0.90
2023-02-26T07:11:28.785Z,0.90
2023-02-26T07:13:55.622Z,0.90
2023-02-26T07:16:22.440Z,0.90
2023-02-26T07:18:49.285Z,0.90
2023-02-26T07:21:16.054Z,1.00
2023-02-26T07:23:43.623Z,1.00
2023-02-26T07:26:12.853Z,1.10
2023-02-26T07:28:39.557Z,1.10
2023-02-26T07:31:06.372Z,1.10
2023-02-26T07:33:34.931Z,1.10
2023-02-26T07:36:02.135Z,1.20
2023-02-26T07:38:28.967Z,1.10
2023-02-26T07:40:56.682Z,1.20
2023-02-26T07:43:24.474Z,1.30
2023-02-26T07:45:52.397Z,1.30
2023-02-26T07:48:19.711Z,1.30
2023-02-26T07:50:47.086Z,1.40
2023-02-26T07:53:13.982Z,1.50
2023-02-26T07:55:40.796Z,1.50
2023-02-26T07:58:07.528Z,1.60
2023-02-26T08:00:34.311Z,1.60
2023-02-26T08:03:01.116Z,1.70
2023-02-26T08:05:30.052Z,1.80
2023-02-26T08:07:57.152Z,1.90
2023-02-26T08:10:23.945Z,2.00
2023-02-26T08:12:50.736Z,2.30
2023-02-26T08:15:17.587Z,2.20
2023-02-26T08:17:44.456Z,2.30
2023-02-26T08:20:11.982Z,2.30
2023-02-26T08:22:39.564Z,2.40
2023-02-26T08:25:07.331Z,2.50
2023-02-26T08:27:35.080Z,2.60
2023-02-26T08:30:02.368Z,2.70
2023-02-26T08:32:29.278Z,2.70
2023-02-26T08:34:56.042Z,2.70
2023-02-26T08:37:24.137Z,2.80
2023-02-26T08:39:51.729Z,2.90
2023-02-26T08:42:20.280Z,2.90
2023-02-26T08:44:47.689Z,3.10
2023-02-26T08:47:19.139Z,3.10
2023-02-26T08:49:51.431Z,3.10
2023-02-26T08:52:18.825Z,3.20
2023-02-26T08:54:45.904Z,3.20
2023-02-26T08:57:13.114Z,3.20
2023-02-26T08:59:39.840Z,3.30
2023-02-26T09:02:06.697Z,3.40
2023-02-26T09:04:33.425Z,3.40
2023-02-26T09:07:00.212Z,3.50
2023-02-26T09:09:26.959Z,3.50
2023-02-26T09:11:55.172Z,3.60
2023-02-26T09:14:22.804Z,3.60
2023-02-26T09:16:51.254Z,3.60
2023-02-26T09:19:18.135Z,3.70
2023-02-26T09:21:45.027Z,3.80
2023-02-26T09:24:11.836Z,3.80
2023-02-26T09:26:38.713Z,3.90
2023-02-26T09:29:05.503Z,4.00
2023-02-26T09:31:32.645Z,4.10
2023-02-26T09:34:00.910Z,4.20
2023-02-26T09:36:28.235Z,4.20
2023-02-26T09:38:55.238Z,4.20
2023-02-26T09:41:26.627Z,4.20
2023-02-26T09:44:17.001Z,4.40
2023-02-26T09:47:21.206Z,4.50
2023-02-26T09:50:05.930Z,4.50
2023-02-26T09:57:41.109Z,4.60
2023-02-26T10:00:20.743Z,6.90
2023-02-26T10:03:12.980Z,7.10
2023-02-26T10:05:49.506Z,6.70
2023-02-26T10:08:18.727Z,6.10
2023-02-26T10:11:05.589Z,5.80
2023-02-26T10:14:01.628Z,5.40
2023-02-26T10:16:35.611Z,5.20
2023-02-26T10:19:10.458Z,5.10
2023-02-26T10:22:00.587Z,5.00
2023-02-26T10:24:40.321Z,5.00
2023-02-26T10:27:16.314Z,5.10
2023-02-26T10:29:51.591Z,5.30
2023-02-26T10:32:43.256Z,5.40
2023-02-26T10:35:15.750Z,5.40
2023-02-26T10:37:59.232Z,5.40
2023-02-26T10:40:29.193Z,5.60
2023-02-26T10:43:06.811Z,5.80
2023-02-26T10:45:45.886Z,5.90
2023-02-26T10:48:27.439Z,6.00
2023-02-26T10:50:57.446Z,6.20
2023-02-26T10:53:26.155Z,6.10
2023-02-26T10:55:56.453Z,6.30
2023-02-26T10:58:26.892Z,6.40
2023-02-26T11:00:55.635Z,6.40
2023-02-26T11:03:35.774Z,6.40
2023-02-26T11:06:04.619Z,6.40
2023-02-26T11:08:43.459Z,6.20
2023-02-26T11:11:10.754Z,6.30
2023-02-26T11:13:38.952Z,5.80
2023-02-26T11:16:13.694Z,5.80
2023-02-26T11:18:50.728Z,6.00
2023-02-26T11:21:22.493Z,6.00
2023-02-26T11:23:54.677Z,5.90
2023-02-26T11:26:28.271Z,6.00
2023-02-26T11:28:55.210Z,6.30
2023-02-26T11:31:25.894Z,6.10
2023-02-26T11:33:58.665Z,6.20
2023-02-26T11:36:30.554Z,6.10
2023-02-26T11:39:01.685Z,6.10
2023-02-26T11:41:35.331Z,6.30
2023-02-26T11:44:07.361Z,6.50
2023-02-26T11:46:41.851Z,6.60
2023-02-26T11:49:12.698Z,6.70
2023-02-26T11:51:45.512Z,6.60
2023-02-26T11:54:28.711Z,6.60
2023-02-26T11:57:05.954Z,6.60
2023-02-26T11:59:33.341Z,6.50
2023-02-26T12:02:12.636Z,6.40
2023-02-26T12:04:43.224Z,6.40
2023-02-26T12:07:14.103Z,6.30
2023-02-26T12:09:41.275Z,6.30
2023-02-26T12:12:30.811Z,6.40
2023-02-26T12:15:24.286Z,6.70
2023-02-26T12:18:00.164Z,6.80
2023-02-26T12:20:39.071Z,6.80
2023-02-26T12:23:26.021Z,6.60
2023-02-26T12:26:22.247Z,6.40
2023-02-26T12:28:58.735Z,6.50
2023-02-26T12:31:49.678Z,6.50
2023-02-26T12:34:55.356Z,6.20
2023-02-26T12:37:38.287Z,5.90
2023-02-26T12:40:52.413Z,5.90
2023-02-26T12:43:47.601Z,6.00
2023-02-26T12:46:40.905Z,5.90
2023-02-26T12:49:40.320Z,5.90
2023-02-26T12:52:43.877Z,6.00
2023-02-26T12:55:24.311Z,6.10
2023-02-26T12:58:23.472Z,6.40
2023-02-26T13:01:15.908Z,6.50
2023-02-26T13:03:57.620Z,6.50
2023-02-26T13:06:48.095Z,6.50
2023-02-26T13:09:14.740Z,6.50
2023-02-26T13:12:18.215Z,6.50
2023-02-26T13:15:11.253Z,6.60
2023-02-26T13:17:50.062Z,6.70
2023-02-26T13:20:24.179Z,6.80
2023-02-26T13:22:56.628Z,6.80
2023-02-26T13:25:48.797Z,6.80
2023-02-26T13:28:30.833Z,6.80
2023-02-26T13:31:01.593Z,6.80
2023-02-26T13:33:31.782Z,6.60
2023-02-26T13:36:00.193Z,6.70
2023-02-26T13:38:49.599Z,6.50
2023-02-26T13:41:19.256Z,6.60
2023-02-26T13:44:05.069Z,6.70
2023-02-26T13:46:38.619Z,6.70
2023-02-26T13:49:12.816Z,6.80
2023-02-26T13:51:49.415Z,6.90
2023-02-26T13:54:22.011Z,6.90
2023-02-26T13:57:26.814Z,6.70
2023-02-26T14:05:10.545Z,6.80
2023-02-26T14:10:25.156Z,7.80
2023-02-26T14:13:21.562Z,9.00
2023-02-26T14:16:20.623Z,9.00
2023-02-26T14:18:48.258Z,9.40
2023-02-26T14:21:49.193Z,9.90
2023-02-26T14:24:37.105Z,10.30
2023-02-26T14:27:13.588Z,9.80
2023-02-26T14:29:41.875Z,9.90
2023-02-26T14:32:11.518Z,10.00
2023-02-26T14:35:03.250Z,9.90
2023-02-26T14:37:33.330Z,10.00
2023-02-26T14:40:17.342Z,10.40
2023-02-26T14:42:50.813Z,10.50
2023-02-26T14:45:17.547Z,10.70
2023-02-26T14:47:46.318Z,11.20
2023-02-26T14:50:21.168Z,11.50
2023-02-26T14:55:40.978Z,11.20
2023-02-26T14:58:36.691Z,11.40
2023-02-26T15:01:39.169Z,11.40
2023-02-26T15:04:16.936Z,10.50
2023-02-26T15:07:19.831Z,10.70
2023-02-26T15:10:11.619Z,11.00
2023-02-26T15:13:11.879Z,11.30
2023-02-26T15:16:04.327Z,11.90
2023-02-26T15:18:49.016Z,12.20
2023-02-26T15:21:21.759Z,12.30
2023-02-26T15:23:56.650Z,12.20
2023-02-26T15:26:26.868Z,11.80
2023-02-26T15:28:56.256Z,11.00
2023-02-26T15:31:34.532Z,9.70
2023-02-26T15:34:03.067Z,8.70
2023-02-26T15:36:31.327Z,8.10
2023-02-26T15:39:00.715Z,7.60
2023-02-26T15:41:31.916Z,7.30
2023-02-26T15:44:04.129Z,7.00
2023-02-26T15:46:36.208Z,6.90
2023-02-26T15:49:08.968Z,6.80
2023-02-26T15:51:36.031Z,6.70
2023-02-26T15:54:03.316Z,6.70
2023-02-26T15:56:34.743Z,6.60
2023-02-26T15:59:19.870Z,6.60
2023-02-26T16:01:51.868Z,6.50
2023-02-26T16:04:21.119Z,6.50
2023-02-26T16:06:56.393Z,6.50
2023-02-26T16:09:30.113Z,6.50
2023-02-26T16:12:00.895Z,6.60
2023-02-26T16:14:33.086Z,6.40
2023-02-26T16:17:00.161Z,6.40
2023-02-26T16:19:38.912Z,6.40
2023-02-26T16:22:25.579Z,6.30
2023-02-26T16:25:02.725Z,6.30
2023-02-26T16:27:30.917Z,6.30
2023-02-26T16:30:00.419Z,6.30
2023-02-26T16:32:31.650Z,6.30
2023-02-26T16:35:08.017Z,6.30
2023-02-26T16:37:38.036Z,6.30
2023-02-26T16:40:07.693Z,6.20
2023-02-26T16:42:44.428Z,6.20
2023-02-26T16:45:35.126Z,6.10
2023-02-26T16:48:24.695Z,6.00
2023-02-26T16:51:06.048Z,6.00
2023-02-26T16:53:43.935Z,6.00
2023-02-26T16:56:16.725Z,5.90
2023-02-26T16:59:30.346Z,5.90
2023-02-26T17:02:19.806Z,5.80
2023-02-26T17:04:52.114Z,6.00
2023-02-26T17:07:21.854Z,5.80
2023-02-26T17:09:51.783Z,5.80
2023-02-26T17:12:39.890Z,5.70
2023-02-26T17:15:34.128Z,5.70
2023-02-26T17:18:01.040Z,5.70
2023-02-26T17:20:29.912Z,5.60
2023-02-26T17:22:58.314Z,5.80
2023-02-26T17:25:29.063Z,5.60
2023-02-26T17:27:56.323Z,5.50
2023-02-26T17:30:29.884Z,5.70
2023-02-26T17:32:56.626Z,5.40
2023-02-26T17:35:23.672Z,5.40
2023-02-26T17:37:52.135Z,5.40
2023-02-26T17:40:34.282Z,5.20
2023-02-26T17:43:02.697Z,5.30
2023-02-26T17:45:29.808Z,5.30
2023-02-26T17:47:58.369Z,5.30
2023-02-26T17:50:49.816Z,5.20
2023-02-26T17:53:18.465Z,5.20
2023-02-26T17:55:46.742Z,5.20
2023-02-26T17:58:26.330Z,5.10
2023-02-26T18:00:53.904Z,5.10
2023-02-26T18:03:21.440Z,5.00
2023-02-26T18:05:50.749Z,5.00
2023-02-26T18:08:23.619Z,5.00
2023-02-26T18:10:51.953Z,4.90
2023-02-26T18:13:19.254Z,4.90
2023-02-26T18:15:46.126Z,4.90
2023-02-26T18:18:19.941Z,4.90
2023-02-26T18:20:47.373Z,4.80
2023-02-26T18:23:16.571Z,4.80
2023-02-26T18:25:48.199Z,4.80
2023-02-26T18:28:26.796Z,4.80
2023-02-26T18:30:54.765Z,4.80
2023-02-26T18:33:21.968Z,4.80
2023-02-26T18:35:55.812Z,4.70
2023-02-26T18:38:26.027Z,4.70
2023-02-26T18:40:53.766Z,4.70
2023-02-26T18:43:21.164Z,4.70
2023-02-26T18:45:50.186Z,4.70
2023-02-26T18:48:19.514Z,4.60
2023-02-26T18:50:47.397Z,4.60
2023-02-26T18:53:16.974Z,4.60
2023-02-26T18:55:44.068Z,4.50
2023-02-26T18:58:11.521Z,4.50
2023-02-26T19:00:38.291Z,4.40
2023-02-26T19:03:05.143Z,4.50
2023-02-26T19:05:31.803Z,4.40
2023-02-26T19:07:59.737Z,4.30
2023-02-26T19:10:29.378Z,4.20
2023-02-26T19:12:56.399Z,4.20
2023-02-26T19:15:24.315Z,4.20
2023-02-26T19:17:51.628Z,4.20
2023-02-26T19:20:18.891Z,4.20
2023-02-26T19:22:46.522Z,4.20
2023-02-26T19:25:13.621Z,4.10
2023-02-26T19:27:40.852Z,4.00
2023-02-26T19:30:13.047Z,4.10
2023-02-26T19:32:39.994Z,4.10
2023-02-26T19:35:07.851Z,4.10
2023-02-26T19:37:34.986Z,4.00
2023-02-26T19:40:04.585Z,4.00
2023-02-26T19:42:31.324Z,4.00
2023-02-26T19:44:58.752Z,4.00
2023-02-26T19:47:25.441Z,3.90
2023-02-26T19:49:52.109Z,4.00
2023-02-26T19:52:19.078Z,3.90
2023-02-26T19:54:47.799Z,3.90
2023-02-26T19:57:14.500Z,3.90
2023-02-26T19:59:42.260Z,3.90
2023-02-26T20:02:09.873Z,3.90
2023-02-26T20:04:36.672Z,3.80
2023-02-26T20:07:03.476Z,3.80
2023-02-26T20:09:30.146Z,3.80
2023-02-26T20:11:57.405Z,3.80
2023-02-26T20:14:24.559Z,3.70
2023-02-26T20:16:51.355Z,3.80
2023-02-26T20:19:18.208Z,3.70
2023-02-26T20:21:45.007Z,3.70
2023-02-26T20:24:11.958Z,3.70
2023-02-26T20:26:38.798Z,3.70
2023-02-26T20:29:05.622Z,3.60
2023-02-26T20:31:32.383Z,3.60
2023-02-26T20:33:59.267Z,3.60
2023-02-26T20:36:26.285Z,3.60
2023-02-26T20:38:53.235Z,3.60
2023-02-26T20:41:20.541Z,3.50
2023-02-26T20:43:47.696Z,3.50
2023-02-26T20:46:14.640Z,3.40
2023-02-26T20:48:43.001Z,3.50
2023-02-26T20:51:11.881Z,3.50
2023-02-26T20:53:39.403Z,3.50
2023-02-26T20:56:06.650Z,3.40
2023-02-26T20:58:33.715Z,3.40
2023-02-26T21:01:00.579Z,3.40
2023-02-26T21:03:27.552Z,3.40
2023-02-26T21:05:54.366Z,3.50
2023-02-26T21:08:21.670Z,3.40
2023-02-26T21:10:53.181Z,3.30
2023-02-26T21:13:19.953Z,3.30
2023-02-26T21:15:48.408Z,3.20
2023-02-26T21:18:16.124Z,3.20
2023-02-26T21:20:42.865Z,3.20
2023-02-26T21:23:09.727Z,3.10
2023-02-26T21:25:36.748Z,3.20
2023-02-26T21:28:04.775Z,3.20
2023-02-26T21:30:31.572Z,3.10
2023-02-26T21:32:58.252Z,3.10
2023-02-26T21:35:25.179Z,3.10
2023-02-26T21:37:52.528Z,3.10
2023-02-26T21:40:19.539Z,3.10
2023-02-26T21:42:46.461Z,3.10
2023-02-26T21:45:13.777Z,3.20
2023-02-26T21:47:40.571Z,3.20
2023-02-26T21:50:10.125Z,3.10
2023-02-26T21:52:36.927Z,3.10
2023-02-26T21:55:06.047Z,3.10
2023-02-26T21:57:32.959Z,3.10
2023-02-26T22:00:01.249Z,3.00
2023-02-26T22:02:30.122Z,3.00
2023-02-26T22:04:58.230Z,3.00
2023-02-26T22:07:25.637Z,3.00
2023-02-26T22:09:53.069Z,3.00
2023-02-26T22:12:19.963Z,2.90
2023-02-26T22:14:48.983Z,2.90
2023-02-26T22:17:16.028Z,2.90
2023-02-26T22:19:42.831Z,2.90
2023-02-26T22:22:09.939Z,2.90
2023-02-26T22:24:36.725Z,2.60
2023-02-26T22:27:03.771Z,2.80
2023-02-26T22:29:30.486Z,2.80
2023-02-26T22:31:57.194Z,2.80
2023-02-26T22:34:24.226Z,2.80
2023-02-26T22:36:52.454Z,2.80
2023-02-26T22:39:19.328Z,2.80
2023-02-26T22:41:47.202Z,2.70
2023-02-26T22:44:15.020Z,2.70
2023-02-26T22:46:41.798Z,2.80
2023-02-26T22:49:08.604Z,2.70
2023-02-26T22:51:35.705Z,2.70
2023-02-26T22:54:02.611Z,2.70
2023-02-26T22:56:29.447Z,2.60
2023-02-26T22:58:57.034Z,2.70
2023-02-26T23:01:24.011Z,2.70
2023-02-26T23:03:50.791Z,2.60
2023-02-26T23:06:17.656Z,2.70
2023-02-26T23:08:44.351Z,2.70
2023-02-26T23:11:11.164Z,2.60
2023-02-26T23:13:38.227Z,2.60
2023-02-26T23:16:07.758Z,2.60
2023-02-26T23:18:36.338Z,2.60
2023-02-26T23:21:04.673Z,2.50
2023-02-26T23:23:32.250Z,2.50
2023-02-26T23:25:59.034Z,2.50
2023-02-26T23:28:25.924Z,2.40
2023-02-26T23:30:52.819Z,2.50
2023-02-26T23:33:19.796Z,2.40
2023-02-26T23:35:46.704Z,2.50
2023-02-26T23:38:13.480Z,2.40
2023-02-26T23:40:40.396Z,2.40
2023-02-26T23:43:07.105Z,2.40
2023-02-26T23:45:34.238Z,2.40
2023-02-26T23:48:00.887Z,2.40
2023-02-26T23:50:27.758Z,2.40
2023-02-26T23:52:54.500Z,2.30
2023-02-26T23:55:21.527Z,2.30
2023-02-26T23:57:48.285Z,2.30
